Time;durP1;ratioP1;P1;durP2;ratioP2;P2;SDS_P1;SDS_P2;PMS_P1;PMS_P2;Temp;Humidity;BMP_temperature;BMP_pressure;BME280_temperature;BME280_humidity;BME280_pressure;Samples;Min_cycle;Max_cycle;Signal;HPM_P1;HPM_P2
2023/05/23 00:01:57;;;;;;;6.50;2.58;;;;;;;14.07;83.85;102117.31;5097970;27;98857;-27
2023/05/23 00:04:25;;;;;;;6.55;3.15;;;;;;;14.08;84.01;102125.38;5097950;27;99710;-28
2023/05/23 00:06:52;;;;;;;4.50;2.33;;;;;;;14.07;83.68;102120.03;5079227;27;96749;-28
2023/05/23 00:09:18;;;;;;;8.18;2.83;;;;;;;14.01;83.78;102115.78;5098375;27;96726;-27
2023/05/23 00:11:44;;;;;;;7.07;2.67;;;;;;;13.98;84.25;102115.97;5097910;27;97494;-28
2023/05/23 00:14:13;;;;;;;6.15;2.47;;;;;;;14.08;83.65;102124.50;5079145;27;101042;-28
2023/05/23 00:16:43;;;;;;;7.28;2.50;;;;;;;14.00;83.75;102106.75;5079517;27;96665;-28
2023/05/23 00:19:15;;;;;;;5.72;2.53;;;;;;;14.07;83.80;102126.34;5079696;27;96862;-27
2023/05/23 00:21:42;;;;;;;;;;;;;;;14.08;83.26;102129.97;5079647;27;101382;-28
2023/05/23 00:24:08;;;;;;;5.43;2.20;;;;;;;14.13;82.81;102125.13;5079692;27;100703;-27
2023/05/23 00:26:34;;;;;;;7.63;2.45;;;;;;;14.13;82.77;102119.69;5097839;27;96649;-28
2023/05/23 00:29:00;;;;;;;4.38;2.50;;;;;;;14.08;83.74;102121.78;5098105;27;96810;-28
2023/05/23 00:31:26;;;;;;;4.43;2.38;;;;;;;14.07;83.84;102122.75;5078447;27;101087;-28
2023/05/23 00:33:51;;;;;;;5.72;2.47;;;;;;;14.05;84.51;102135.59;5096598;27;99251;-27
2023/05/23 00:36:17;;;;;;;3.85;2.10;;;;;;;14.03;83.81;102135.66;5097980;27;96597;-27
2023/05/23 00:38:44;;;;;;;3.33;1.65;;;;;;;14.01;84.14;102126.69;5098027;27;96790;-29
2023/05/23 00:41:10;;;;;;;7.72;2.33;;;;;;;14.04;83.83;102129.25;5078875;27;101218;-28
2023/05/23 00:43:35;;;;;;;6.57;2.03;;;;;;;14.00;83.77;102127.66;5097483;27;99146;-28
2023/05/23 00:46:01;;;;;;;3.15;2.03;;;;;;;14.01;83.81;102129.41;5098056;27;96567;-28
2023/05/23 00:48:27;;;;;;;3.65;1.60;;;;;;;14.01;83.97;102123.97;5098371;27;96782;-27
2023/05/23 00:50:53;;;;;;;4.82;1.90;;;;;;;13.97;84.85;102127.84;5078859;27;99035;-27
2023/05/23 00:53:19;;;;;;;3.20;1.85;;;;;;;13.94;85.52;102137.06;5078781;27;100771;-28
2023/05/23 00:55:44;;;;;;;3.35;1.65;;;;;;;13.93;85.55;102135.28;5078398;27;96759;-27
2023/05/23 00:58:10;;;;;;;4.05;1.50;;;;;;;13.92;85.41;102138.09;5097696;27;96893;-29
2023/05/23 01:00:37;;;;;;;3.38;1.90;;;;;;;13.88;85.53;102140.13;5097348;27;98128;-28
2023/05/23 01:03:03;;;;;;;3.85;2.05;;;;;;;13.87;85.28;102132.00;5078523;27;100859;-28
2023/05/23 01:05:29;;;;;;;2.28;1.45;;;;;;;13.92;85.80;102155.34;5078898;27;96674;-28
2023/05/23 01:07:54;;;;;;;3.90;1.77;;;;;;;13.89;86.24;102135.53;5097945;27;96778;-28
2023/05/23 01:10:26;;;;;;;5.00;1.75;;;;;;;13.95;85.86;102140.66;5096441;27;99562;-28
2023/05/23 01:13:06;;;;;;;6.25;2.22;;;;;;;13.94;86.64;102144.34;5079057;27;100511;-28
2023/05/23 01:15:39;;;;;;;2.78;1.63;;;;;;;13.91;85.76;102147.25;5078604;27;96635;-28
2023/05/23 01:18:18;;;;;;;3.58;1.52;;;;;;;13.95;84.84;102146.13;5078716;27;96783;-29
2023/05/23 01:20:51;;;;;;;3.67;1.77;;;;;;;13.98;84.97;102144.09;5077666;27;101050;-28
2023/05/23 01:23:42;;;;;;;5.25;2.08;;;;;;;14.01;84.79;102141.22;5097140;27;97843;-28
2023/05/23 01:26:31;;;;;;;5.87;1.83;;;;;;;13.98;85.32;102141.34;5056699;27;97820;-27
2023/05/23 01:29:08;;;;;;;4.07;1.92;;;;;;;13.93;84.77;102132.56;5078417;27;96759;-28
2023/05/23 01:31:35;;;;;;;5.60;1.85;;;;;;;13.99;84.38;102131.34;5097087;27;97050;-28
2023/05/23 01:34:01;;;;;;;6.93;2.47;;;;;;;14.02;84.55;102136.63;5077218;27;100777;-27
2023/05/23 01:36:27;;;;;;;2.55;1.67;;;;;;;14.02;84.21;102132.06;5078425;27;96717;-28
2023/05/23 01:38:52;;;;;;;9.00;2.40;;;;;;;14.08;84.56;102136.28;5097040;27;96836;-27
2023/05/23 01:41:17;;;;;;;6.82;2.25;;;;;;;14.07;84.04;102139.97;5096762;27;97927;-29
2023/05/23 01:43:43;;;;;;;4.88;2.05;;;;;;;14.01;84.67;102135.75;5096236;27;97772;-28
2023/05/23 01:46:09;;;;;;;4.65;2.30;;;;;;;14.05;83.67;102141.91;5095577;27;96571;-27
2023/05/23 01:48:37;;;;;;;7.40;2.38;;;;;;;14.03;83.45;102144.72;5078103;27;96807;-28
2023/05/23 01:51:03;;;;;;;5.20;2.33;;;;;;;14.11;83.29;102149.75;5077756;27;101366;-27
2023/05/23 01:53:30;;;;;;;4.18;2.08;;;;;;;14.06;82.44;102148.22;5077727;27;101545;-28
2023/05/23 01:55:56;;;;;;;4.00;2.08;;;;;;;14.12;82.24;102150.63;5077940;27;96495;-28
2023/05/23 01:58:21;;;;;;;4.97;1.67;;;;;;;14.10;82.53;102149.81;5096388;27;96867;-28
2023/05/23 02:00:47;;;;;;;5.65;1.80;;;;;;;14.11;82.06;102149.75;5096477;27;97804;-27
2023/05/23 02:03:12;;;;;;;3.67;1.65;;;;;;;14.06;82.03;102149.09;5096963;27;97259;-28
2023/05/23 02:05:37;;;;;;;8.60;2.00;;;;;;;14.03;82.62;102150.16;5096602;27;96662;-28
2023/05/23 02:08:02;;;;;;;5.07;1.88;;;;;;;14.07;82.21;102158.19;5096804;27;96749;-27
2023/05/23 02:10:28;;;;;;;5.25;2.35;;;;;;;14.03;81.98;102146.56;5095762;27;97357;-28
2023/05/23 02:12:53;;;;;;;5.82;2.45;;;;;;;14.08;81.62;102149.91;5096099;27;97878;-28
2023/05/23 02:15:19;;;;;;;8.15;1.90;;;;;;;14.07;81.74;102144.56;5096432;27;96513;-27
2023/05/23 02:17:44;;;;;;;6.82;2.80;;;;;;;14.08;81.45;102155.34;5096355;27;97874;-27
2023/05/23 02:20:10;;;;;;;4.88;2.15;;;;;;;14.07;81.87;102155.47;5095852;27;98967;-27
2023/05/23 02:22:35;;;;;;;6.03;2.10;;;;;;;14.06;81.37;102148.22;5095889;27;99077;-28
2023/05/23 02:25:01;;;;;;;5.43;2.17;;;;;;;14.05;81.66;102157.38;5096361;27;96560;-27
2023/05/23 02:27:26;;;;;;;3.65;1.90;;;;;;;14.02;81.51;102152.97;5096526;27;96863;-28
2023/05/23 02:29:51;;;;;;;4.05;1.70;;;;;;;14.08;81.39;102160.81;5077349;27;101182;-28
2023/05/23 02:32:17;;;;;;;5.82;1.67;;;;;;;14.07;81.42;102163.63;5095112;27;99264;-32
2023/05/23 02:34:45;;;;;;;8.00;1.88;;;;;;;14.08;81.29;102173.56;5095656;27;96639;-29
2023/05/23 02:37:11;;;;;;;5.20;2.00;;;;;;;14.11;80.75;102177.00;5077401;27;96827;-28
2023/05/23 02:39:37;;;;;;;3.85;1.70;;;;;;;14.08;80.96;102173.56;5077150;27;99242;-27
2023/05/23 02:42:03;;;;;;;7.43;1.90;;;;;;;14.05;80.83;102177.31;5095694;27;97763;-27
2023/05/23 02:44:28;;;;;;;7.25;2.00;;;;;;;14.00;80.70;102187.59;5095954;27;96529;-27
2023/05/23 02:46:54;;;;;;;7.53;1.77;;;;;;;13.92;80.73;102174.41;5095803;27;96952;-27
2023/05/23 02:49:19;;;;;;;8.50;2.20;;;;;;;14.01;80.30;102194.78;5095797;27;98488;-27
2023/05/23 02:51:44;;;;;;;7.72;2.15;;;;;;;13.98;80.73;102181.34;5095974;27;97778;-27
2023/05/23 02:54:10;;;;;;;3.92;2.05;;;;;;;13.99;80.59;102199.44;5096035;27;96807;-28
2023/05/23 02:56:35;;;;;;;4.78;1.92;;;;;;;13.89;80.63;102182.72;5096553;27;96831;-28
2023/05/23 02:59:00;;;;;;;8.02;1.98;;;;;;;13.90;80.66;102192.66;5098584;27;105790;-27
2023/05/23 03:01:26;;;;;;;4.40;1.70;;;;;;;13.85;81.06;102200.22;5099226;27;97187;-27
2023/05/23 03:03:51;;;;;;;4.80;1.95;;;;;;;13.85;80.44;102200.22;5099251;27;96447;-28
2023/05/23 03:06:16;;;;;;;7.78;1.98;;;;;;;13.80;80.50;102202.31;5099709;27;96837;-28
2023/05/23 03:08:42;;;;;;;5.97;2.28;;;;;;;13.74;80.69;102208.06;5099180;27;97966;-28
2023/05/23 03:11:08;;;;;;;9.02;1.98;;;;;;;13.72;80.58;102196.38;5098585;27;97100;-28
2023/05/23 03:13:34;;;;;;;5.55;1.67;;;;;;;13.69;80.74;102208.31;5099430;27;96481;-27
2023/05/23 03:15:59;;;;;;;5.65;1.52;;;;;;;13.59;80.70;102197.03;5080989;27;96788;-28
2023/05/23 03:18:24;;;;;;;4.28;1.80;;;;;;;13.62;80.66;102203.28;5099021;27;97355;-28
2023/05/23 03:20:50;;;;;;;8.40;1.40;;;;;;;13.63;80.66;102210.47;5098867;27;97588;-27
2023/05/23 03:23:15;;;;;;;5.60;1.50;;;;;;;13.57;80.16;102190.78;5098554;27;96433;-27
2023/05/23 03:25:42;;;;;;;3.92;1.42;;;;;;;13.59;80.05;102194.31;5099059;27;96806;-28
2023/05/23 03:28:07;;;;;;;5.80;1.52;;;;;;;13.68;79.64;102211.09;5080100;27;101001;-28
2023/05/23 03:30:33;;;;;;;5.78;1.67;;;;;;;13.65;79.72;102203.97;5098785;27;97275;-27
2023/05/23 03:32:58;;;;;;;2.22;1.20;;;;;;;13.62;80.19;102208.72;5098618;27;96554;-28
2023/05/23 03:35:23;;;;;;;3.97;1.60;;;;;;;13.60;79.72;102212.38;5080265;27;96897;-28
2023/05/23 03:37:49;;;;;;;4.13;1.25;;;;;;;13.52;79.74;102201.03;5098720;27;97462;-28
2023/05/23 03:40:14;;;;;;;4.20;1.25;;;;;;;13.48;79.90;102213.03;5098964;27;97792;-28
2023/05/23 03:42:39;;;;;;;6.28;1.48;;;;;;;13.43;80.33;102220.56;5098779;27;96603;-27
2023/05/23 03:45:05;;;;;;;2.67;0.95;;;;;;;13.36;80.34;102210.94;5098347;27;96903;-27
2023/05/23 03:47:31;;;;;;;4.72;1.65;;;;;;;13.27;80.33;102204.13;5079289;27;101120;-28
2023/05/23 03:49:56;;;;;;;2.20;0.90;;;;;;;13.38;80.01;102219.91;5098667;27;97443;-27
2023/05/23 03:52:22;;;;;;;4.30;1.60;;;;;;;13.38;80.00;102223.53;5098710;27;96535;-27
2023/05/23 03:54:47;;;;;;;1.70;0.98;;;;;;;13.37;79.85;102215.41;5080027;27;96870;-28
2023/05/23 03:57:12;;;;;;;8.38;1.63;;;;;;;13.43;79.94;102228.72;5098069;27;97507;-27
2023/05/23 03:59:38;;;;;;;4.80;1.58;;;;;;;13.40;79.67;102230.75;5098092;27;99544;-28
2023/05/23 04:02:03;;;;;;;3.42;1.17;;;;;;;13.39;79.80;102229.84;5080055;27;96516;-28
2023/05/23 04:04:29;;;;;;;2.28;1.00;;;;;;;13.40;79.39;102237.06;5098735;27;96878;-28
2023/05/23 04:06:55;;;;;;;1.65;1.02;;;;;;;13.42;79.40;102234.25;5097788;27;97928;-28
2023/05/23 04:09:20;;;;;;;1.38;0.82;;;;;;;13.36;79.30;102246.34;5097547;27;99123;-28
2023/05/23 04:11:46;;;;;;;3.80;1.42;;;;;;;13.35;78.85;102255.47;5097990;27;96791;-27
2023/05/23 04:14:12;;;;;;;6.63;1.42;;;;;;;13.22;78.13;102236.09;5098286;27;96882;-28
2023/05/23 04:16:40;;;;;;;3.28;1.48;;;;;;;13.27;78.31;102250.38;5097869;27;98943;-27
2023/05/23 04:19:06;;;;;;;2.10;1.00;;;;;;;13.26;78.19;102250.44;5097886;27;97241;-28
2023/05/23 04:21:31;;;;;;;6.15;1.35;;;;;;;13.28;78.02;102243.13;5098350;27;96724;-27
2023/05/23 04:23:57;;;;;;;4.90;1.33;;;;;;;13.24;78.20;102241.47;5098267;27;96762;-27
2023/05/23 04:26:22;;;;;;;3.95;1.20;;;;;;;13.21;77.76;102258.84;5097685;27;98125;-27
2023/05/23 04:28:49;;;;;;;4.40;0.88;;;;;;;13.26;77.83;102254.06;5097888;27;98898;-27
2023/05/23 04:31:14;;;;;;;2.92;0.98;;;;;;;13.22;76.93;102266.03;5079254;27;96695;-27
2023/05/23 04:33:40;;;;;;;2.63;1.00;;;;;;;13.19;76.30;102260.75;5097824;27;96754;-28
2023/05/23 04:36:08;;;;;;;2.15;0.98;;;;;;;13.11;76.55;102265.72;5097431;27;98106;-28
2023/05/23 04:38:34;;;;;;;5.45;1.20;;;;;;;13.09;76.34;102259.47;5078546;27;100857;-27
2023/05/23 04:40:59;;;;;;;8.10;2.03;;;;;;;13.07;76.52;102256.81;5098007;27;96494;-27
2023/05/23 04:43:28;;;;;;;6.72;1.77;;;;;;;13.10;76.16;102262.09;5097987;27;96781;-28
2023/05/23 04:45:53;;;;;;;2.72;1.23;;;;;;;13.13;76.28;102277.38;5078890;27;100790;-29
2023/05/23 04:48:20;;;;;;;5.70;1.95;;;;;;;13.09;76.17;102273.94;5097378;27;99194;-28
2023/05/23 04:50:46;;;;;;;3.08;1.30;;;;;;;13.11;76.12;102277.47;5079226;27;96640;-28
2023/05/23 04:53:12;;;;;;;4.07;1.95;;;;;;;13.13;75.94;102275.56;5098173;27;96787;-27
2023/05/23 04:55:37;;;;;;;5.78;1.73;;;;;;;13.14;75.94;102281.88;5097360;27;102461;-28
2023/05/23 04:58:03;;;;;;;3.83;1.52;;;;;;;13.13;75.79;102281.00;5097357;27;97866;-27
2023/05/23 05:00:29;;;;;;;2.47;1.33;;;;;;;13.07;75.61;102284.00;5097467;27;96541;-27
2023/05/23 05:02:54;;;;;;;6.75;1.50;;;;;;;13.05;75.42;102290.47;5097581;27;96879;-27
2023/05/23 05:05:20;;;;;;;7.60;2.00;;;;;;;13.05;75.13;102291.34;5097172;27;97933;-28
2023/05/23 05:07:45;;;;;;;3.03;1.42;;;;;;;13.07;75.05;102288.56;5097254;27;97994;-27
2023/05/23 05:10:15;;;;;;;2.72;1.40;;;;;;;12.97;74.91;102299.03;5097478;27;96500;-28
2023/05/23 05:12:45;;;;;;;3.10;1.50;;;;;;;12.94;75.17;102301.88;5078807;27;96803;-27
2023/05/23 05:15:12;;;;;;;3.10;1.75;;;;;;;12.90;75.18;102301.16;5096922;27;99822;-28
2023/05/23 05:17:37;;;;;;;3.50;1.73;;;;;;;12.90;74.97;102309.31;5078708;27;100747;-28
2023/05/23 05:20:07;;;;;;;5.95;1.95;;;;;;;12.88;74.73;102303.06;5077497;27;96647;-27
2023/05/23 05:22:34;;;;;;;3.75;1.65;;;;;;;12.89;75.00;102299.38;5097205;27;96841;-28
2023/05/23 05:25:01;;;;;;;4.82;1.52;;;;;;;12.94;74.75;102319.09;5077846;27;101091;-28
2023/05/23 05:27:26;;;;;;;11.57;1.88;;;;;;;13.04;74.49;102316.81;5078202;27;101030;-28
2023/05/23 05:29:52;;;;;;;5.38;1.95;;;;;;;13.00;73.74;102314.31;5097001;27;96440;-28
2023/05/23 05:32:18;;;;;;;6.72;2.40;;;;;;;13.04;73.92;102322.25;5096335;27;96823;-30
2023/05/23 05:34:43;;;;;;;4.78;1.98;;;;;;;13.04;73.05;102326.78;5078217;27;100940;-28
2023/05/23 05:37:08;;;;;;;3.63;1.80;;;;;;;13.03;72.82;102336.78;5077718;27;97852;-28
2023/05/23 05:39:34;;;;;;;2.30;1.33;;;;;;;12.99;72.84;102327.03;5097045;27;96771;-28
2023/05/23 05:42:02;;;;;;;5.03;1.95;;;;;;;13.00;72.54;102327.91;5097096;27;96822;-28
2023/05/23 05:44:27;;;;;;;6.72;1.35;;;;;;;12.90;72.01;102331.06;5096630;27;98037;-29
2023/05/23 05:46:53;;;;;;;3.40;1.63;;;;;;;12.88;72.04;102338.41;5096576;27;97805;-27
2023/05/23 05:49:18;;;;;;;2.63;1.40;;;;;;;12.88;72.68;102329.38;5096119;27;96586;-28
2023/05/23 05:51:43;;;;;;;4.95;2.00;;;;;;;12.85;72.10;102343.13;5096733;27;96887;-27
2023/05/23 05:54:09;;;;;;;7.95;1.80;;;;;;;12.77;72.93;102334.44;5096636;27;98255;-27
2023/05/23 05:56:35;;;;;;;4.22;2.00;;;;;;;12.84;72.95;102350.38;5096519;27;97800;-27
2023/05/23 05:59:00;;;;;;;2.30;1.20;;;;;;;12.81;72.84;102344.22;5096855;27;96555;-27
2023/05/23 06:01:26;;;;;;;5.03;1.98;;;;;;;12.82;72.92;102349.56;5096832;27;96823;-28
2023/05/23 06:03:51;;;;;;;4.35;1.83;;;;;;;12.85;73.28;102354.00;5096235;27;99935;-29
2023/05/23 06:06:16;;;;;;;5.22;1.58;;;;;;;12.79;73.35;102349.72;5096246;27;99252;-28
2023/05/23 06:08:42;;;;;;;4.90;1.83;;;;;;;12.78;73.90;102338.94;5096701;27;96534;-28
2023/05/23 06:11:07;;;;;;;4.70;1.60;;;;;;;12.81;74.17;102350.53;5096218;27;96850;-27
2023/05/23 06:13:33;;;;;;;3.92;1.70;;;;;;;12.81;74.67;102344.22;5095802;27;98438;-27
2023/05/23 06:15:58;;;;;;;4.65;1.50;;;;;;;12.82;74.77;102346.84;5095980;27;99560;-27
2023/05/23 06:18:23;;;;;;;6.55;1.75;;;;;;;12.85;74.65;102348.56;5096130;27;96757;-27
2023/05/23 06:20:49;;;;;;;6.40;1.75;;;;;;;12.86;74.85;102351.19;5096194;27;96768;-28
2023/05/23 06:23:15;;;;;;;2.60;1.05;;;;;;;12.79;75.11;102355.16;5095733;27;99516;-27
2023/05/23 06:25:40;;;;;;;3.30;0.95;;;;;;;12.89;75.24;102358.31;5096154;27;97754;-27
2023/05/23 06:28:05;;;;;;;3.80;1.58;;;;;;;12.86;75.12;102361.19;5096256;27;97721;-28
2023/05/23 06:30:30;;;;;;;4.22;1.30;;;;;;;12.89;74.98;102355.59;5096403;27;96816;-28
2023/05/23 06:32:56;;;;;;;3.92;1.73;;;;;;;12.88;76.07;102368.31;5095435;27;97923;-28
2023/05/23 06:35:21;;;;;;;5.00;1.45;;;;;;;12.84;76.97;102372.13;5095500;27;99217;-29
2023/05/23 06:37:47;;;;;;;3.42;1.60;;;;;;;12.87;77.29;102376.53;5095121;27;101133;-29
2023/05/23 06:40:13;;;;;;;2.78;1.13;;;;;;;12.78;76.79;102364.28;5096272;27;96782;-29
2023/05/23 06:42:39;;;;;;;4.20;1.48;;;;;;;12.88;76.45;102378.34;5077126;27;101494;-28
2023/05/23 06:45:04;;;;;;;4.28;1.10;;;;;;;12.89;77.06;102377.38;5095931;27;97840;-28
2023/05/23 06:47:30;;;;;;;2.65;1.20;;;;;;;12.89;76.94;102377.38;5077498;27;96648;-28
2023/05/23 06:49:55;;;;;;;2.38;1.10;;;;;;;12.84;77.33;102385.72;5095754;27;96936;-27
2023/05/23 06:52:20;;;;;;;1.30;0.77;;;;;;;12.79;78.02;102389.63;5095633;27;97509;-29
2023/05/23 06:54:46;;;;;;;1.27;0.73;;;;;;;12.78;77.37;102393.31;5095977;27;97782;-28
2023/05/23 06:57:11;;;;;;;3.78;1.10;;;;;;;12.78;76.79;102386.03;5077546;27;96608;-28
2023/05/23 06:59:36;;;;;;;2.60;0.43;;;;;;;12.77;76.83;102376.09;5077293;27;96794;-29
2023/05/23 07:02:02;;;;;;;3.35;0.70;;;;;;;12.65;76.98;102376.66;5094987;27;99176;-28
2023/05/23 07:04:27;;;;;;;3.10;0.77;;;;;;;12.65;76.48;102379.38;5095343;27;97782;-29
2023/05/23 07:06:52;;;;;;;2.88;0.70;;;;;;;12.73;75.84;102396.25;5095915;27;96535;-28
2023/05/23 07:09:18;;;;;;;4.95;1.00;;;;;;;12.75;75.31;102387.06;5095848;27;96810;-28
2023/05/23 07:11:43;;;;;;;3.38;1.02;;;;;;;12.88;74.56;102376.50;5095109;27;99441;-28
2023/05/23 07:14:08;;;;;;;4.60;0.90;;;;;;;13.29;73.36;102392.72;5095130;27;99281;-29
2023/05/23 07:16:34;;;;;;;2.00;0.90;;;;;;;13.72;72.31;102395.16;5095849;27;96445;-28
2023/05/23 07:19:00;;;;;;;1.75;0.90;;;;;;;13.90;69.54;102390.66;5095764;27;96764;-27
2023/05/23 07:21:25;;;;;;;1.15;0.63;;;;;;;13.84;68.85;102393.69;5076606;27;100836;-28
2023/05/23 07:23:51;;;;;;;3.65;1.08;;;;;;;13.70;69.45;102389.78;5095187;27;101628;-29
2023/05/23 07:26:16;;;;;;;2.60;0.73;;;;;;;13.61;69.22;102393.00;5095021;27;96449;-28
2023/05/23 07:28:41;;;;;;;2.05;0.73;;;;;;;13.62;69.58;102399.31;5095553;27;96824;-28
2023/05/23 07:31:08;;;;;;;5.75;1.00;;;;;;;13.59;69.31;102409.41;5095150;27;97956;-28
2023/05/23 07:33:33;;;;;;;3.53;1.10;;;;;;;13.52;69.14;102405.22;5072445;27;99511;-28
2023/05/23 07:35:59;;;;;;;3.85;0.88;;;;;;;13.60;68.43;102402.09;5074939;27;96603;-27
2023/05/23 07:38:25;;;;;;;2.13;1.00;;;;;;;13.67;68.42;102408.13;5073326;27;96736;-28
2023/05/23 07:40:51;;;;;;;1.75;0.70;;;;;;;13.83;66.95;102408.25;5073051;27;100848;-27
2023/05/23 07:43:16;;;;;;;2.25;1.00;;;;;;;13.94;65.51;102393.16;5076214;27;99199;-28
2023/05/23 07:45:41;;;;;;;5.55;1.10;;;;;;;14.33;66.66;102410.25;5078074;27;96582;-28
2023/05/23 07:48:08;;;;;;;4.57;0.70;;;;;;;14.65;65.16;102406.69;5078327;27;96767;-28
2023/05/23 07:50:33;;;;;;;5.35;0.90;;;;;;;14.56;64.33;102401.75;5075866;27;100786;-28
2023/05/23 07:52:58;;;;;;;3.13;0.77;;;;;;;14.88;64.24;102410.03;5077967;27;97910;-28
2023/05/23 07:55:24;;;;;;;3.50;1.13;;;;;;;15.07;62.55;102405.31;5078132;27;96522;-29
2023/05/23 07:57:49;;;;;;;5.07;0.73;;;;;;;15.19;62.10;102409.22;5078149;27;98261;-28
2023/05/23 08:00:15;;;;;;;7.40;1.27;;;;;;;15.28;63.00;102413.28;5077562;27;99283;-28
2023/05/23 08:02:40;;;;;;;3.38;1.00;;;;;;;15.15;62.16;102407.63;5077788;27;97840;-28
2023/05/23 08:05:07;;;;;;;2.58;0.65;;;;;;;15.04;62.48;102407.31;5077925;27;96646;-29
2023/05/23 08:07:32;;;;;;;6.88;1.38;;;;;;;15.01;62.87;102407.50;5078358;27;96921;-28
2023/05/23 08:09:58;;;;;;;2.92;1.15;;;;;;;15.06;62.01;102408.13;5077486;27;98438;-27
2023/05/23 08:12:23;;;;;;;3.83;0.73;;;;;;;15.08;62.47;102411.66;5077364;27;97647;-30
2023/05/23 08:14:48;;;;;;;4.68;1.17;;;;;;;14.86;61.96;102421.03;5077600;27;96567;-28
2023/05/23 08:17:14;;;;;;;3.30;0.93;;;;;;;14.94;62.94;102427.91;5077602;27;96869;-29
2023/05/23 08:19:40;;;;;;;6.03;1.05;;;;;;;15.05;62.99;102428.22;5077051;27;98124;-28
2023/05/23 08:22:06;;;;;;;6.53;1.27;;;;;;;15.12;62.42;102424.16;5077345;27;97804;-28
2023/05/23 08:24:33;;;;;;;7.20;1.48;;;;;;;15.48;62.34;102415.75;5077697;27;96521;-28
2023/05/23 08:26:58;;;;;;;4.75;0.88;;;;;;;15.43;61.59;102420.59;5076107;27;96823;-28
2023/05/23 08:29:23;;;;;;;3.58;1.00;;;;;;;15.44;61.11;102424.19;5077600;27;97467;-28
2023/05/23 08:31:49;;;;;;;1.83;1.00;;;;;;;15.33;61.49;102434.88;5076901;27;100707;-28
2023/05/23 08:34:14;;;;;;;3.53;1.10;;;;;;;15.25;61.99;102430.72;5094447;27;96667;-28
2023/05/23 08:36:41;;;;;;;4.80;1.00;;;;;;;15.12;60.74;102434.22;5098072;27;96906;-28
2023/05/23 08:39:07;;;;;;;3.40;0.95;;;;;;;15.23;60.57;102432.66;5097225;27;98057;-30
2023/05/23 08:41:34;;;;;;;9.10;1.45;;;;;;;15.09;61.08;102432.53;5078843;27;100840;-27
2023/05/23 08:43:59;;;;;;;3.13;0.77;;;;;;;15.15;60.58;102440.38;5079248;27;96560;-28
2023/05/23 08:46:26;;;;;;;3.63;0.93;;;;;;;15.10;60.64;102441.59;5097934;27;96862;-32
2023/05/23 08:48:53;;;;;;;3.47;1.30;;;;;;;14.99;60.97;102420.34;5078721;27;101778;-28
2023/05/23 08:51:24;;;;;;;3.33;0.93;;;;;;;15.02;61.52;102428.38;5078875;27;100692;-28
2023/05/23 08:53:52;;;;;;;3.65;0.85;;;;;;;15.45;61.37;102431.44;5079019;27;96563;-28
2023/05/23 08:56:18;;;;;;;2.13;0.73;;;;;;;15.55;60.03;102426.34;5079374;27;96868;-28
2023/05/23 08:58:46;;;;;;;4.18;1.15;;;;;;;15.54;59.83;102433.66;5078556;27;101429;-28
2023/05/23 09:01:12;;;;;;;3.42;1.00;;;;;;;15.57;60.32;102436.19;5078641;27;101086;-28
2023/05/23 09:03:41;;;;;;;4.13;1.08;;;;;;;15.63;60.53;102440.41;5078448;27;96615;-28
2023/05/23 09:06:07;;;;;;;4.47;1.10;;;;;;;15.74;59.91;102443.47;5078972;27;96904;-28
2023/05/23 09:08:33;;;;;;;5.75;1.13;;;;;;;16.08;60.08;102452.41;5078394;27;100837;-28
2023/05/23 09:11:01;;;;;;;4.28;0.77;;;;;;;16.30;59.76;102441.97;5078084;27;100856;-28
2023/05/23 09:13:29;;;;;;;2.83;0.75;;;;;;;16.56;58.32;102451.34;5078679;27;96627;-28
2023/05/23 09:16:00;;;;;;;4.22;0.82;;;;;;;16.64;58.01;102456.31;5078556;27;96845;-28
2023/05/23 09:18:31;;;;;;;2.85;1.00;;;;;;;16.60;56.52;102467.56;5096986;27;97987;-28
2023/05/23 09:20:57;;;;;;;5.63;0.80;;;;;;;16.36;58.11;102468.06;5078797;27;100896;-28
2023/05/23 09:23:22;;;;;;;4.32;1.13;;;;;;;16.18;57.64;102464.56;5097521;27;96617;-28
2023/05/23 09:25:48;;;;;;;5.10;1.13;;;;;;;16.20;58.45;102475.41;5097404;27;96825;-28
2023/05/23 09:28:13;;;;;;;6.53;1.15;;;;;;;16.33;57.28;102471.00;5096140;27;98382;-28
2023/05/23 09:30:38;;;;;;;4.28;1.10;;;;;;;16.24;57.00;102474.28;5096875;27;97812;-28
2023/05/23 09:33:04;;;;;;;5.13;0.90;;;;;;;16.50;57.37;102462.63;5090674;27;96843;-28
2023/05/23 09:35:30;;;;;;;5.15;1.20;;;;;;;16.46;57.06;102469.25;5078223;27;96872;-28
2023/05/23 09:37:57;;;;;;;3.67;1.13;;;;;;;16.68;56.86;102465.22;5096812;27;97946;-28
2023/05/23 09:40:29;;;;;;;3.38;1.15;;;;;;;16.72;56.00;102459.47;5077985;27;100036;-28
2023/05/23 09:43:01;;;;;;;3.90;0.85;;;;;;;17.02;55.83;102471.34;5078299;27;96625;-28
2023/05/23 09:45:30;;;;;;;3.00;1.05;;;;;;;17.01;54.29;102478.69;5078662;27;96728;-28
2023/05/23 09:47:55;;;;;;;1.83;1.23;;;;;;;17.28;54.53;102465.13;5077821;27;101240;-27
2023/05/23 09:50:21;;;;;;;2.72;1.13;;;;;;;17.42;54.12;102475.16;5096544;27;97795;-28
2023/05/23 09:52:47;;;;;;;5.20;1.35;;;;;;;17.39;52.62;102464.41;5077902;27;96504;-28
2023/05/23 09:55:13;;;;;;;5.28;0.98;;;;;;;17.31;54.82;102464.91;5096705;27;96782;-28
2023/05/23 09:57:41;;;;;;;2.45;0.95;;;;;;;17.11;54.24;102470.78;5077641;27;99189;-28
2023/05/23 10:00:12;;;;;;;2.42;0.90;;;;;;;17.27;53.54;102477.03;5077590;27;101218;-28
2023/05/23 10:03:00;;;;;;;5.67;0.87;;;;;;;17.01;52.50;102466.88;5097006;27;96750;-28
2023/05/23 10:05:44;;;;;;;3.42;0.98;;;;;;;17.13;53.33;102479.78;5077437;27;96614;-27
2023/05/23 10:08:15;;;;;;;3.60;1.27;;;;;;;17.18;54.35;102470.31;5096471;27;97951;-28
2023/05/23 10:11:12;;;;;;;3.97;0.88;;;;;;;17.35;53.38;102480.19;5076186;27;101346;-29
2023/05/23 10:13:42;;;;;;;5.82;1.52;;;;;;;17.46;53.93;102482.22;5055527;27;97107;-28
2023/05/23 10:16:38;;;;;;;2.75;0.80;;;;;;;17.41;51.79;102482.50;5055865;27;97234;-32
2023/05/23 10:19:22;;;;;;;3.30;0.88;;;;;;;17.20;52.73;102495.72;5073935;27;99839;-29
2023/05/23 10:21:53;;;;;;;5.60;1.05;;;;;;;17.16;52.70;102482.31;5075255;27;99457;-28
2023/05/23 10:24:20;;;;;;;3.08;0.90;;;;;;;17.10;53.10;102494.53;5057294;27;96606;-28
2023/05/23 10:26:46;;;;;;;5.75;0.90;;;;;;;17.11;53.88;102499.06;5057276;27;96700;-28
2023/05/23 10:29:12;;;;;;;5.82;0.95;;;;;;;16.91;54.99;102489.34;5075467;27;98240;-28
2023/05/23 10:31:38;;;;;;;4.15;1.48;;;;;;;16.98;54.07;102490.72;5075299;27;97332;-28
2023/05/23 10:34:30;;;;;;;2.80;1.23;;;;;;;17.19;53.59;102493.97;5075384;27;96769;-28
2023/05/23 10:37:06;;;;;;;6.00;1.40;;;;;;;17.38;52.40;102495.53;5076010;27;96585;-28
2023/05/23 10:39:34;;;;;;;3.33;0.93;;;;;;;17.60;53.18;102501.38;5056539;27;101038;-28
2023/05/23 10:42:06;;;;;;;4.43;0.80;;;;;;;17.85;51.08;102491.56;5056532;27;100849;-28
2023/05/23 10:44:31;;;;;;;;;;;;;;;17.98;51.24;102505.38;5075784;27;96504;-28
2023/05/23 10:47:02;;;;;;;3.92;1.35;;;;;;;17.63;50.71;102500.31;5075575;27;96990;-27
2023/05/23 10:49:42;;;;;;;3.30;1.10;;;;;;;17.56;52.11;102491.59;5075126;27;98665;-28
2023/05/23 10:52:10;;;;;;;2.20;0.80;;;;;;;17.56;51.72;102498.94;5056603;27;100938;-29
2023/05/23 10:54:40;;;;;;;5.38;1.08;;;;;;;17.34;50.88;102492.09;5075300;27;96511;-28
2023/05/23 10:57:06;;;;;;;3.85;1.23;;;;;;;17.44;52.83;102489.66;5075072;27;96608;-28
2023/05/23 10:59:32;;;;;;;2.65;0.80;;;;;;;17.76;51.74;102490.31;5056406;27;100928;-28
2023/05/23 11:01:59;;;;;;;5.30;1.00;;;;;;;18.06;50.88;102504.84;5075097;27;97903;-28
2023/05/23 11:04:26;;;;;;;5.70;0.88;;;;;;;17.77;50.14;102497.53;5075232;27;96618;-27
2023/05/23 11:06:55;;;;;;;4.15;1.00;;;;;;;17.56;51.07;102496.19;5056843;27;96918;-28
2023/05/23 11:09:21;;;;;;;1.98;0.77;;;;;;;17.52;51.28;102495.53;5055946;27;100868;-28
2023/05/23 11:11:50;;;;;;;2.13;0.85;;;;;;;17.87;51.66;102502.47;5074666;27;97162;-28
2023/05/23 11:14:15;;;;;;;4.25;1.17;;;;;;;18.04;50.98;102497.63;5075329;27;96641;-27
2023/05/23 11:16:42;;;;;;;6.05;1.35;;;;;;;18.15;48.03;102498.75;5074917;27;96990;-28
2023/05/23 11:19:16;;;;;;;8.02;1.15;;;;;;;18.09;49.60;102497.31;5059049;27;100915;-28
2023/05/23 11:21:44;;;;;;;3.13;0.82;;;;;;;17.93;50.08;102502.94;5078497;27;97712;-28
2023/05/23 11:24:09;;;;;;;4.93;1.23;;;;;;;17.59;50.05;102490.50;5059983;27;96603;-29